sensor_id;sensor_type;location;lat;lon;timestamp;P1;durP1;ratioP1;P2;durP2;ratioP2
4597;SDS011;62772;48.646;8.906;2023-04-08T00:04:24;31.73;;;15.73;;
4597;SDS011;62772;48.646;8.906;2023-04-08T00:09:25;30.10;;;15.20;;
4597;SDS011;62772;48.646;8.906;2023-04-08T00:14:25;28.70;;;15.73;;
4597;SDS011;62772;48.646;8.906;2023-04-08T00:19:26;28.13;;;16.20;;
4597;SDS011;62772;48.646;8.906;2023-04-08T00:24:26;33.90;;;15.43;;
4597;SDS011;62772;48.646;8.906;2023-04-08T00:29:27;31.40;;;16.60;;
4597;SDS011;62772;48.646;8.906;2023-04-08T00:34:28;28.73;;;15.10;;
4597;SDS011;62772;48.646;8.906;2023-04-08T00:39:28;31.53;;;16.53;;
4597;SDS011;62772;48.646;8.906;2023-04-08T00:44:29;29.70;;;14.70;;
4597;SDS011;62772;48.646;8.906;2023-04-08T00:49:29;29.13;;;15.43;;
4597;SDS011;62772;48.646;8.906;2023-04-08T00:54:30;24.23;;;13.17;;
4597;SDS011;62772;48.646;8.906;2023-04-08T00:59:31;26.23;;;12.80;;
4597;SDS011;62772;48.646;8.906;2023-04-08T01:04:39;25.00;;;13.00;;
4597;SDS011;62772;48.646;8.906;2023-04-08T01:09:50;23.27;;;14.00;;
4597;SDS011;62772;48.646;8.906;2023-04-08T01:14:59;26.73;;;14.00;;
4597;SDS011;62772;48.646;8.906;2023-04-08T01:20:03;27.70;;;14.17;;
4597;SDS011;62772;48.646;8.906;2023-04-08T01:25:05;25.60;;;14.40;;
4597;SDS011;62772;48.646;8.906;2023-04-08T01:30:12;28.43;;;14.00;;
4597;SDS011;62772;48.646;8.906;2023-04-08T01:35:14;28.07;;;14.70;;
4597;SDS011;62772;48.646;8.906;2023-04-08T01:40:16;29.30;;;15.90;;
4597;SDS011;62772;48.646;8.906;2023-04-08T01:45:18;27.90;;;16.10;;
4597;SDS011;62772;48.646;8.906;2023-04-08T01:50:19;30.03;;;16.90;;
4597;SDS011;62772;48.646;8.906;2023-04-08T01:55:21;36.67;;;17.30;;
4597;SDS011;62772;48.646;8.906;2023-04-08T02:00:24;30.77;;;17.70;;
4597;SDS011;62772;48.646;8.906;2023-04-08T02:05:27;33.43;;;17.83;;
4597;SDS011;62772;48.646;8.906;2023-04-08T02:10:27;39.47;;;18.27;;
4597;SDS011;62772;48.646;8.906;2023-04-08T02:15:28;41.47;;;19.80;;
4597;SDS011;62772;48.646;8.906;2023-04-08T02:20:42;31.73;;;17.17;;
4597;SDS011;62772;48.646;8.906;2023-04-08T02:25:46;37.10;;;16.20;;
4597;SDS011;62772;48.646;8.906;2023-04-08T02:30:49;35.40;;;17.67;;
4597;SDS011;62772;48.646;8.906;2023-04-08T02:35:51;34.00;;;16.73;;
4597;SDS011;62772;48.646;8.906;2023-04-08T02:40:54;36.17;;;18.37;;
4597;SDS011;62772;48.646;8.906;2023-04-08T02:45:55;34.77;;;17.10;;
4597;SDS011;62772;48.646;8.906;2023-04-08T02:50:55;35.07;;;17.20;;
4597;SDS011;62772;48.646;8.906;2023-04-08T02:55:56;31.50;;;15.90;;
4597;SDS011;62772;48.646;8.906;2023-04-08T03:00:56;33.53;;;15.50;;
4597;SDS011;62772;48.646;8.906;2023-04-08T03:05:57;31.57;;;15.00;;
4597;SDS011;62772;48.646;8.906;2023-04-08T03:10:58;26.30;;;14.20;;
4597;SDS011;62772;48.646;8.906;2023-04-08T03:15:58;28.90;;;14.07;;
4597;SDS011;62772;48.646;8.906;2023-04-08T03:20:58;23.70;;;12.33;;
4597;SDS011;62772;48.646;8.906;2023-04-08T03:26:00;24.90;;;12.60;;
4597;SDS011;62772;48.646;8.906;2023-04-08T03:31:02;21.67;;;12.43;;
4597;SDS011;62772;48.646;8.906;2023-04-08T03:36:03;21.40;;;10.90;;
4597;SDS011;62772;48.646;8.906;2023-04-08T03:41:05;18.50;;;10.60;;
4597;SDS011;62772;48.646;8.906;2023-04-08T03:46:06;17.80;;;9.40;;
4597;SDS011;62772;48.646;8.906;2023-04-08T03:51:06;21.20;;;10.50;;
4597;SDS011;62772;48.646;8.906;2023-04-08T03:56:07;20.57;;;11.20;;
4597;SDS011;62772;48.646;8.906;2023-04-08T04:01:07;23.00;;;11.30;;
4597;SDS011;62772;48.646;8.906;2023-04-08T04:06:07;20.40;;;12.00;;
4597;SDS011;62772;48.646;8.906;2023-04-08T04:11:09;22.87;;;11.97;;
4597;SDS011;62772;48.646;8.906;2023-04-08T04:16:09;21.33;;;11.93;;
4597;SDS011;62772;48.646;8.906;2023-04-08T04:21:10;23.90;;;13.97;;
4597;SDS011;62772;48.646;8.906;2023-04-08T04:26:11;22.93;;;12.67;;
4597;SDS011;62772;48.646;8.906;2023-04-08T04:31:21;18.63;;;10.90;;
4597;SDS011;62772;48.646;8.906;2023-04-08T04:36:23;27.77;;;11.37;;
4597;SDS011;62772;48.646;8.906;2023-04-08T04:41:23;18.17;;;11.50;;
4597;SDS011;62772;48.646;8.906;2023-04-08T04:46:23;18.33;;;10.50;;
4597;SDS011;62772;48.646;8.906;2023-04-08T04:51:24;20.40;;;11.70;;
4597;SDS011;62772;48.646;8.906;2023-04-08T04:56:25;21.67;;;12.13;;
4597;SDS011;62772;48.646;8.906;2023-04-08T05:01:26;20.27;;;11.10;;
4597;SDS011;62772;48.646;8.906;2023-04-08T05:06:28;21.07;;;12.20;;
4597;SDS011;62772;48.646;8.906;2023-04-08T05:11:28;18.83;;;10.83;;
4597;SDS011;62772;48.646;8.906;2023-04-08T05:16:28;19.93;;;12.27;;
4597;SDS011;62772;48.646;8.906;2023-04-08T05:21:29;17.37;;;10.63;;
4597;SDS011;62772;48.646;8.906;2023-04-08T05:26:29;23.77;;;11.53;;
4597;SDS011;62772;48.646;8.906;2023-04-08T05:31:30;20.60;;;11.53;;
4597;SDS011;62772;48.646;8.906;2023-04-08T05:36:31;19.40;;;11.47;;
4597;SDS011;62772;48.646;8.906;2023-04-08T05:41:31;25.30;;;12.83;;
4597;SDS011;62772;48.646;8.906;2023-04-08T05:46:32;22.80;;;11.30;;
4597;SDS011;62772;48.646;8.906;2023-04-08T05:51:32;26.00;;;13.70;;
4597;SDS011;62772;48.646;8.906;2023-04-08T05:56:32;27.17;;;13.97;;
4597;SDS011;62772;48.646;8.906;2023-04-08T06:01:33;28.40;;;13.87;;
4597;SDS011;62772;48.646;8.906;2023-04-08T06:06:36;27.17;;;14.50;;
4597;SDS011;62772;48.646;8.906;2023-04-08T06:11:37;29.03;;;14.20;;
4597;SDS011;62772;48.646;8.906;2023-04-08T06:16:38;26.70;;;14.93;;
4597;SDS011;62772;48.646;8.906;2023-04-08T06:21:38;23.30;;;12.90;;
4597;SDS011;62772;48.646;8.906;2023-04-08T06:26:39;24.10;;;12.10;;
4597;SDS011;62772;48.646;8.906;2023-04-08T06:31:39;27.93;;;13.80;;
4597;SDS011;62772;48.646;8.906;2023-04-08T06:36:40;24.43;;;13.50;;
4597;SDS011;62772;48.646;8.906;2023-04-08T06:41:41;21.90;;;13.10;;
4597;SDS011;62772;48.646;8.906;2023-04-08T06:46:58;25.10;;;13.63;;
4597;SDS011;62772;48.646;8.906;2023-04-08T06:51:58;25.20;;;13.90;;
4597;SDS011;62772;48.646;8.906;2023-04-08T06:56:59;19.60;;;12.60;;
4597;SDS011;62772;48.646;8.906;2023-04-08T07:01:59;21.20;;;13.30;;
4597;SDS011;62772;48.646;8.906;2023-04-08T07:07:00;21.47;;;12.60;;
4597;SDS011;62772;48.646;8.906;2023-04-08T07:12:01;19.10;;;11.80;;
4597;SDS011;62772;48.646;8.906;2023-04-08T07:17:03;17.30;;;10.10;;
4597;SDS011;62772;48.646;8.906;2023-04-08T07:22:03;17.70;;;10.20;;
4597;SDS011;62772;48.646;8.906;2023-04-08T07:27:04;19.53;;;10.37;;
4597;SDS011;62772;48.646;8.906;2023-04-08T07:32:04;19.73;;;10.40;;
4597;SDS011;62772;48.646;8.906;2023-04-08T07:37:06;23.13;;;12.33;;
4597;SDS011;62772;48.646;8.906;2023-04-08T07:42:06;26.50;;;13.40;;
4597;SDS011;62772;48.646;8.906;2023-04-08T07:47:07;25.27;;;14.43;;
4597;SDS011;62772;48.646;8.906;2023-04-08T07:52:08;24.73;;;14.00;;
4597;SDS011;62772;48.646;8.906;2023-04-08T07:57:08;27.93;;;14.73;;
4597;SDS011;62772;48.646;8.906;2023-04-08T08:02:09;28.40;;;14.03;;
4597;SDS011;62772;48.646;8.906;2023-04-08T08:07:09;25.40;;;13.60;;
4597;SDS011;62772;48.646;8.906;2023-04-08T08:12:10;27.47;;;13.87;;
4597;SDS011;62772;48.646;8.906;2023-04-08T08:17:11;23.10;;;13.67;;
4597;SDS011;62772;48.646;8.906;2023-04-08T08:22:12;25.53;;;13.07;;
4597;SDS011;62772;48.646;8.906;2023-04-08T08:27:12;24.93;;;13.43;;
4597;SDS011;62772;48.646;8.906;2023-04-08T08:32:13;19.80;;;12.20;;
4597;SDS011;62772;48.646;8.906;2023-04-08T08:37:13;20.33;;;11.90;;
4597;SDS011;62772;48.646;8.906;2023-04-08T08:42:32;21.50;;;15.20;;
4597;SDS011;62772;48.646;8.906;2023-04-08T08:47:32;22.80;;;12.87;;
4597;SDS011;62772;48.646;8.906;2023-04-08T08:52:33;20.83;;;12.97;;
4597;SDS011;62772;48.646;8.906;2023-04-08T08:57:33;16.33;;;11.13;;
4597;SDS011;62772;48.646;8.906;2023-04-08T09:02:34;19.40;;;12.40;;
4597;SDS011;62772;48.646;8.906;2023-04-08T09:07:35;27.80;;;15.63;;
4597;SDS011;62772;48.646;8.906;2023-04-08T09:12:51;23.80;;;15.07;;
4597;SDS011;62772;48.646;8.906;2023-04-08T09:17:53;24.83;;;15.13;;
4597;SDS011;62772;48.646;8.906;2023-04-08T09:22:54;24.87;;;16.10;;
4597;SDS011;62772;48.646;8.906;2023-04-08T09:27:59;27.20;;;14.73;;
4597;SDS011;62772;48.646;8.906;2023-04-08T09:33:01;27.50;;;15.50;;
4597;SDS011;62772;48.646;8.906;2023-04-08T09:38:06;24.17;;;15.90;;
4597;SDS011;62772;48.646;8.906;2023-04-08T09:43:06;26.60;;;16.00;;
4597;SDS011;62772;48.646;8.906;2023-04-08T09:53:12;25.77;;;15.60;;
4597;SDS011;62772;48.646;8.906;2023-04-08T09:58:20;25.03;;;16.20;;
4597;SDS011;62772;48.646;8.906;2023-04-08T10:03:28;28.00;;;16.30;;
4597;SDS011;62772;48.646;8.906;2023-04-08T10:08:33;26.10;;;15.87;;
4597;SDS011;62772;48.646;8.906;2023-04-08T10:13:34;28.03;;;16.80;;
4597;SDS011;62772;48.646;8.906;2023-04-08T10:18:35;26.70;;;15.30;;
4597;SDS011;62772;48.646;8.906;2023-04-08T10:23:52;24.60;;;15.47;;
4597;SDS011;62772;48.646;8.906;2023-04-08T10:28:55;25.77;;;16.00;;
4597;SDS011;62772;48.646;8.906;2023-04-08T10:33:55;24.03;;;15.63;;
4597;SDS011;62772;48.646;8.906;2023-04-08T10:38:57;24.37;;;14.97;;
4597;SDS011;62772;48.646;8.906;2023-04-08T10:43:57;26.30;;;15.53;;
4597;SDS011;62772;48.646;8.906;2023-04-08T10:48:58;27.30;;;15.87;;
4597;SDS011;62772;48.646;8.906;2023-04-08T10:54:11;25.70;;;15.70;;
4597;SDS011;62772;48.646;8.906;2023-04-08T10:59:13;23.73;;;14.93;;
4597;SDS011;62772;48.646;8.906;2023-04-08T11:04:16;24.60;;;15.30;;
4597;SDS011;62772;48.646;8.906;2023-04-08T11:09:22;21.87;;;14.90;;
4597;SDS011;62772;48.646;8.906;2023-04-08T11:14:22;29.43;;;17.27;;
4597;SDS011;62772;48.646;8.906;2023-04-08T11:19:24;26.97;;;16.40;;
4597;SDS011;62772;48.646;8.906;2023-04-08T11:24:25;22.67;;;15.43;;
4597;SDS011;62772;48.646;8.906;2023-04-08T11:29:26;25.93;;;16.00;;
4597;SDS011;62772;48.646;8.906;2023-04-08T11:34:27;27.50;;;16.80;;
4597;SDS011;62772;48.646;8.906;2023-04-08T11:39:27;25.47;;;16.77;;
4597;SDS011;62772;48.646;8.906;2023-04-08T11:44:31;26.23;;;16.30;;
4597;SDS011;62772;48.646;8.906;2023-04-08T11:49:46;24.53;;;15.97;;
4597;SDS011;62772;48.646;8.906;2023-04-08T11:54:47;25.80;;;15.47;;
4597;SDS011;62772;48.646;8.906;2023-04-08T11:59:47;24.80;;;15.43;;
4597;SDS011;62772;48.646;8.906;2023-04-08T12:04:48;25.83;;;16.07;;
4597;SDS011;62772;48.646;8.906;2023-04-08T12:09:49;27.50;;;18.17;;
4597;SDS011;62772;48.646;8.906;2023-04-08T12:14:49;26.77;;;16.33;;
4597;SDS011;62772;48.646;8.906;2023-04-08T12:19:49;26.20;;;17.50;;
4597;SDS011;62772;48.646;8.906;2023-04-08T12:24:50;24.60;;;16.10;;
4597;SDS011;62772;48.646;8.906;2023-04-08T12:29:51;26.57;;;16.10;;
4597;SDS011;62772;48.646;8.906;2023-04-08T12:34:52;27.23;;;16.20;;
4597;SDS011;62772;48.646;8.906;2023-04-08T12:39:52;26.60;;;15.87;;
4597;SDS011;62772;48.646;8.906;2023-04-08T12:44:53;22.80;;;15.43;;
4597;SDS011;62772;48.646;8.906;2023-04-08T12:49:53;60.63;;;28.57;;
4597;SDS011;62772;48.646;8.906;2023-04-08T12:54:54;22.17;;;15.10;;
4597;SDS011;62772;48.646;8.906;2023-04-08T12:59:55;23.97;;;15.77;;
4597;SDS011;62772;48.646;8.906;2023-04-08T13:04:55;21.30;;;14.87;;
4597;SDS011;62772;48.646;8.906;2023-04-08T13:09:56;22.57;;;14.47;;
4597;SDS011;62772;48.646;8.906;2023-04-08T13:14:56;21.27;;;14.60;;
4597;SDS011;62772;48.646;8.906;2023-04-08T13:19:57;22.30;;;14.27;;
4597;SDS011;62772;48.646;8.906;2023-04-08T13:24:58;23.77;;;14.90;;
4597;SDS011;62772;48.646;8.906;2023-04-08T13:29:58;26.70;;;15.37;;
4597;SDS011;62772;48.646;8.906;2023-04-08T13:34:59;22.93;;;14.37;;
4597;SDS011;62772;48.646;8.906;2023-04-08T13:39:59;23.63;;;15.50;;
4597;SDS011;62772;48.646;8.906;2023-04-08T13:45:00;24.37;;;15.67;;
4597;SDS011;62772;48.646;8.906;2023-04-08T13:50:01;24.23;;;15.20;;
4597;SDS011;62772;48.646;8.906;2023-04-08T13:55:01;24.60;;;14.83;;
4597;SDS011;62772;48.646;8.906;2023-04-08T14:00:02;22.43;;;15.13;;
4597;SDS011;62772;48.646;8.906;2023-04-08T14:05:10;23.07;;;15.00;;
4597;SDS011;62772;48.646;8.906;2023-04-08T14:10:10;25.37;;;15.80;;
4597;SDS011;62772;48.646;8.906;2023-04-08T14:15:11;22.00;;;14.73;;
4597;SDS011;62772;48.646;8.906;2023-04-08T14:20:11;22.43;;;14.90;;
4597;SDS011;62772;48.646;8.906;2023-04-08T14:25:12;24.10;;;15.63;;
4597;SDS011;62772;48.646;8.906;2023-04-08T14:30:12;23.53;;;15.13;;
4597;SDS011;62772;48.646;8.906;2023-04-08T14:35:12;25.10;;;14.80;;
4597;SDS011;62772;48.646;8.906;2023-04-08T14:40:13;30.10;;;16.90;;
4597;SDS011;62772;48.646;8.906;2023-04-08T14:45:14;23.10;;;15.47;;
4597;SDS011;62772;48.646;8.906;2023-04-08T14:50:15;25.77;;;16.30;;
4597;SDS011;62772;48.646;8.906;2023-04-08T14:55:15;24.67;;;15.17;;
4597;SDS011;62772;48.646;8.906;2023-04-08T15:00:16;24.47;;;15.67;;
4597;SDS011;62772;48.646;8.906;2023-04-08T15:05:17;26.93;;;15.63;;
4597;SDS011;62772;48.646;8.906;2023-04-08T15:10:17;26.37;;;16.73;;
4597;SDS011;62772;48.646;8.906;2023-04-08T15:15:17;21.70;;;14.20;;
4597;SDS011;62772;48.646;8.906;2023-04-08T15:20:18;25.40;;;16.20;;
4597;SDS011;62772;48.646;8.906;2023-04-08T15:25:19;25.43;;;15.43;;
4597;SDS011;62772;48.646;8.906;2023-04-08T15:30:19;21.27;;;13.13;;
4597;SDS011;62772;48.646;8.906;2023-04-08T15:35:23;26.37;;;13.90;;
4597;SDS011;62772;48.646;8.906;2023-04-08T15:40:23;23.00;;;14.30;;
4597;SDS011;62772;48.646;8.906;2023-04-08T15:45:24;21.40;;;13.10;;
4597;SDS011;62772;48.646;8.906;2023-04-08T15:50:27;23.63;;;14.77;;
4597;SDS011;62772;48.646;8.906;2023-04-08T15:55:29;22.77;;;15.13;;
4597;SDS011;62772;48.646;8.906;2023-04-08T16:00:30;31.70;;;18.80;;
4597;SDS011;62772;48.646;8.906;2023-04-08T16:05:30;26.37;;;16.10;;
4597;SDS011;62772;48.646;8.906;2023-04-08T16:10:33;23.50;;;15.00;;
4597;SDS011;62772;48.646;8.906;2023-04-08T16:15:34;22.30;;;14.03;;
4597;SDS011;62772;48.646;8.906;2023-04-08T16:20:37;24.07;;;15.53;;
4597;SDS011;62772;48.646;8.906;2023-04-08T16:25:38;22.77;;;15.30;;
4597;SDS011;62772;48.646;8.906;2023-04-08T16:30:38;22.60;;;15.00;;
4597;SDS011;62772;48.646;8.906;2023-04-08T16:35:42;22.60;;;14.10;;
4597;SDS011;62772;48.646;8.906;2023-04-08T16:40:42;20.67;;;12.90;;
4597;SDS011;62772;48.646;8.906;2023-04-08T16:45:43;18.00;;;12.53;;
4597;SDS011;62772;48.646;8.906;2023-04-08T16:50:44;17.17;;;11.83;;
4597;SDS011;62772;48.646;8.906;2023-04-08T16:55:44;16.67;;;10.80;;
4597;SDS011;62772;48.646;8.906;2023-04-08T17:00:45;15.00;;;10.07;;
4597;SDS011;62772;48.646;8.906;2023-04-08T17:05:48;13.07;;;9.50;;
4597;SDS011;62772;48.646;8.906;2023-04-08T17:10:48;14.27;;;9.30;;
4597;SDS011;62772;48.646;8.906;2023-04-08T17:15:49;17.33;;;9.83;;
4597;SDS011;62772;48.646;8.906;2023-04-08T17:20:49;16.33;;;9.43;;
4597;SDS011;62772;48.646;8.906;2023-04-08T17:25:50;12.93;;;8.53;;
4597;SDS011;62772;48.646;8.906;2023-04-08T17:30:50;14.73;;;8.53;;
4597;SDS011;62772;48.646;8.906;2023-04-08T17:35:51;14.07;;;9.50;;
4597;SDS011;62772;48.646;8.906;2023-04-08T17:40:52;14.70;;;9.67;;
4597;SDS011;62772;48.646;8.906;2023-04-08T17:45:52;12.13;;;8.73;;
4597;SDS011;62772;48.646;8.906;2023-04-08T17:51:03;14.27;;;9.90;;
4597;SDS011;62772;48.646;8.906;2023-04-08T17:56:04;21.03;;;9.83;;
4597;SDS011;62772;48.646;8.906;2023-04-08T18:01:05;14.20;;;9.33;;
4597;SDS011;62772;48.646;8.906;2023-04-08T18:06:08;16.60;;;10.40;;
4597;SDS011;62772;48.646;8.906;2023-04-08T18:11:09;15.63;;;10.77;;
4597;SDS011;62772;48.646;8.906;2023-04-08T18:16:16;16.87;;;10.50;;
4597;SDS011;62772;48.646;8.906;2023-04-08T18:21:17;17.40;;;10.70;;
4597;SDS011;62772;48.646;8.906;2023-04-08T18:26:18;17.70;;;11.03;;
4597;SDS011;62772;48.646;8.906;2023-04-08T18:31:18;15.13;;;10.43;;
4597;SDS011;62772;48.646;8.906;2023-04-08T18:36:19;17.17;;;11.30;;
4597;SDS011;62772;48.646;8.906;2023-04-08T18:41:21;19.03;;;11.87;;
4597;SDS011;62772;48.646;8.906;2023-04-08T18:46:24;19.13;;;12.80;;
4597;SDS011;62772;48.646;8.906;2023-04-08T18:51:25;16.70;;;11.30;;
4597;SDS011;62772;48.646;8.906;2023-04-08T18:56:25;17.10;;;11.57;;
4597;SDS011;62772;48.646;8.906;2023-04-08T19:01:26;17.70;;;12.00;;
4597;SDS011;62772;48.646;8.906;2023-04-08T19:06:29;16.63;;;11.73;;
4597;SDS011;62772;48.646;8.906;2023-04-08T19:11:29;18.43;;;12.10;;
4597;SDS011;62772;48.646;8.906;2023-04-08T19:16:30;20.67;;;14.33;;
4597;SDS011;62772;48.646;8.906;2023-04-08T19:21:30;23.07;;;15.07;;
4597;SDS011;62772;48.646;8.906;2023-04-08T19:26:32;19.00;;;12.40;;
4597;SDS011;62772;48.646;8.906;2023-04-08T19:31:32;16.93;;;12.00;;
4597;SDS011;62772;48.646;8.906;2023-04-08T19:36:33;17.50;;;12.53;;
4597;SDS011;62772;48.646;8.906;2023-04-08T19:41:33;18.60;;;12.73;;
4597;SDS011;62772;48.646;8.906;2023-04-08T19:46:34;17.97;;;12.20;;
4597;SDS011;62772;48.646;8.906;2023-04-08T19:51:34;20.10;;;12.30;;
4597;SDS011;62772;48.646;8.906;2023-04-08T19:56:34;16.93;;;11.70;;
4597;SDS011;62772;48.646;8.906;2023-04-08T20:01:36;17.03;;;11.20;;
4597;SDS011;62772;48.646;8.906;2023-04-08T20:06:38;15.60;;;11.30;;
4597;SDS011;62772;48.646;8.906;2023-04-08T20:11:39;15.87;;;11.47;;
4597;SDS011;62772;48.646;8.906;2023-04-08T20:16:40;17.10;;;12.60;;
4597;SDS011;62772;48.646;8.906;2023-04-08T20:21:41;19.87;;;11.90;;
4597;SDS011;62772;48.646;8.906;2023-04-08T20:26:42;16.00;;;10.63;;
4597;SDS011;62772;48.646;8.906;2023-04-08T20:31:43;17.50;;;12.23;;
4597;SDS011;62772;48.646;8.906;2023-04-08T20:36:46;16.80;;;11.10;;
4597;SDS011;62772;48.646;8.906;2023-04-08T20:41:46;17.70;;;12.07;;
4597;SDS011;62772;48.646;8.906;2023-04-08T20:46:47;17.90;;;12.30;;
4597;SDS011;62772;48.646;8.906;2023-04-08T20:51:48;18.60;;;11.33;;
4597;SDS011;62772;48.646;8.906;2023-04-08T20:56:48;18.53;;;12.17;;
4597;SDS011;62772;48.646;8.906;2023-04-08T21:01:51;19.13;;;13.10;;
4597;SDS011;62772;48.646;8.906;2023-04-08T21:06:52;18.10;;;12.13;;
4597;SDS011;62772;48.646;8.906;2023-04-08T21:11:53;16.07;;;10.90;;
4597;SDS011;62772;48.646;8.906;2023-04-08T21:16:53;18.50;;;11.73;;
4597;SDS011;62772;48.646;8.906;2023-04-08T21:21:53;16.87;;;12.07;;
4597;SDS011;62772;48.646;8.906;2023-04-08T21:26:54;18.83;;;12.97;;
4597;SDS011;62772;48.646;8.906;2023-04-08T21:31:55;16.53;;;11.80;;
4597;SDS011;62772;48.646;8.906;2023-04-08T21:36:56;14.80;;;10.67;;
4597;SDS011;62772;48.646;8.906;2023-04-08T21:41:56;17.03;;;11.40;;
4597;SDS011;62772;48.646;8.906;2023-04-08T21:46:56;19.80;;;12.30;;
4597;SDS011;62772;48.646;8.906;2023-04-08T21:51:57;17.93;;;11.80;;
4597;SDS011;62772;48.646;8.906;2023-04-08T21:56:57;21.30;;;12.93;;
4597;SDS011;62772;48.646;8.906;2023-04-08T22:01:58;18.67;;;13.07;;
4597;SDS011;62772;48.646;8.906;2023-04-08T22:06:58;19.00;;;13.20;;
4597;SDS011;62772;48.646;8.906;2023-04-08T22:11:59;20.10;;;13.53;;
4597;SDS011;62772;48.646;8.906;2023-04-08T22:17:01;19.07;;;13.03;;
4597;SDS011;62772;48.646;8.906;2023-04-08T22:22:01;21.33;;;13.87;;
4597;SDS011;62772;48.646;8.906;2023-04-08T22:27:02;18.33;;;12.53;;
4597;SDS011;62772;48.646;8.906;2023-04-08T22:32:02;21.50;;;13.70;;
4597;SDS011;62772;48.646;8.906;2023-04-08T22:37:03;23.67;;;13.83;;
4597;SDS011;62772;48.646;8.906;2023-04-08T22:42:03;23.07;;;15.10;;
4597;SDS011;62772;48.646;8.906;2023-04-08T22:47:04;24.10;;;15.30;;
4597;SDS011;62772;48.646;8.906;2023-04-08T22:52:04;22.70;;;14.10;;
4597;SDS011;62772;48.646;8.906;2023-04-08T22:57:04;24.47;;;14.87;;
4597;SDS011;62772;48.646;8.906;2023-04-08T23:02:05;25.90;;;15.90;;
4597;SDS011;62772;48.646;8.906;2023-04-08T23:07:05;27.53;;;15.80;;
4597;SDS011;62772;48.646;8.906;2023-04-08T23:12:06;29.20;;;15.43;;
4597;SDS011;62772;48.646;8.906;2023-04-08T23:17:06;25.70;;;14.23;;
4597;SDS011;62772;48.646;8.906;2023-04-08T23:22:07;21.17;;;13.00;;
4597;SDS011;62772;48.646;8.906;2023-04-08T23:27:07;24.57;;;14.23;;
4597;SDS011;62772;48.646;8.906;2023-04-08T23:32:08;26.43;;;14.40;;
4597;SDS011;62772;48.646;8.906;2023-04-08T23:37:08;27.10;;;14.60;;
4597;SDS011;62772;48.646;8.906;2023-04-08T23:42:09;23.07;;;12.83;;
4597;SDS011;62772;48.646;8.906;2023-04-08T23:47:09;24.27;;;14.30;;
4597;SDS011;62772;48.646;8.906;2023-04-08T23:52:09;23.30;;;12.83;;
4597;SDS011;62772;48.646;8.906;2023-04-08T23:57:10;23.27;;;13.27;;
